sensor_id;sensor_type;location;lat;lon;timestamp;temperature;humidity
6114;DHT22;3087;48.392;10.836;2022-07-23T00:00:59;27.80;99.90
6114;DHT22;3087;48.392;10.836;2022-07-23T00:03:25;27.90;99.90
6114;DHT22;3087;48.392;10.836;2022-07-23T00:05:51;27.90;99.90
6114;DHT22;3087;48.392;10.836;2022-07-23T00:08:17;27.90;99.90
6114;DHT22;3087;48.392;10.836;2022-07-23T00:10:43;27.90;99.90
6114;DHT22;3087;48.392;10.836;2022-07-23T00:13:09;27.90;99.90
6114;DHT22;3087;48.392;10.836;2022-07-23T00:15:34;27.80;99.90
6114;DHT22;3087;48.392;10.836;2022-07-23T00:18:00;27.70;99.90
6114;DHT22;3087;48.392;10.836;2022-07-23T00:20:26;27.70;99.90
6114;DHT22;3087;48.392;10.836;2022-07-23T00:22:53;27.70;99.90
6114;DHT22;3087;48.392;10.836;2022-07-23T00:25:21;27.70;99.90
6114;DHT22;3087;48.392;10.836;2022-07-23T00:27:46;27.70;99.90
6114;DHT22;3087;48.392;10.836;2022-07-23T00:30:13;27.70;99.90
6114;DHT22;3087;48.392;10.836;2022-07-23T00:32:52;27.70;99.90
6114;DHT22;3087;48.392;10.836;2022-07-23T00:35:21;27.60;99.90
6114;DHT22;3087;48.392;10.836;2022-07-23T00:37:47;27.50;99.40
6114;DHT22;3087;48.392;10.836;2022-07-23T00:40:13;27.40;99.00
6114;DHT22;3087;48.392;10.836;2022-07-23T00:42:39;27.40;98.90
6114;DHT22;3087;48.392;10.836;2022-07-23T00:45:05;27.30;99.00
6114;DHT22;3087;48.392;10.836;2022-07-23T00:47:31;27.30;99.40
6114;DHT22;3087;48.392;10.836;2022-07-23T00:49:56;27.30;99.90
6114;DHT22;3087;48.392;10.836;2022-07-23T00:52:22;27.30;99.90
6114;DHT22;3087;48.392;10.836;2022-07-23T00:54:48;27.30;99.90
6114;DHT22;3087;48.392;10.836;2022-07-23T00:57:14;27.20;99.90
6114;DHT22;3087;48.392;10.836;2022-07-23T00:59:40;27.10;99.90
6114;DHT22;3087;48.392;10.836;2022-07-23T01:02:06;27.10;99.90
6114;DHT22;3087;48.392;10.836;2022-07-23T01:04:32;27.10;99.90
6114;DHT22;3087;48.392;10.836;2022-07-23T01:06:58;27.10;99.90
6114;DHT22;3087;48.392;10.836;2022-07-23T01:09:23;26.90;99.90
6114;DHT22;3087;48.392;10.836;2022-07-23T01:11:50;26.00;99.90
6114;DHT22;3087;48.392;10.836;2022-07-23T01:14:18;25.40;99.90
6114;DHT22;3087;48.392;10.836;2022-07-23T01:16:45;24.90;99.90
6114;DHT22;3087;48.392;10.836;2022-07-23T01:19:12;24.40;99.90
6114;DHT22;3087;48.392;10.836;2022-07-23T01:21:40;24.30;99.90
6114;DHT22;3087;48.392;10.836;2022-07-23T01:24:06;24.00;99.90
6114;DHT22;3087;48.392;10.836;2022-07-23T01:26:32;23.70;99.90
6114;DHT22;3087;48.392;10.836;2022-07-23T01:28:58;23.50;99.90
6114;DHT22;3087;48.392;10.836;2022-07-23T01:31:24;23.20;99.90
6114;DHT22;3087;48.392;10.836;2022-07-23T01:33:49;23.10;99.90
6114;DHT22;3087;48.392;10.836;2022-07-23T01:36:15;22.90;99.90
6114;DHT22;3087;48.392;10.836;2022-07-23T01:38:40;22.60;99.90
6114;DHT22;3087;48.392;10.836;2022-07-23T01:41:06;22.20;99.90
6114;DHT22;3087;48.392;10.836;2022-07-23T01:43:32;21.90;99.90
6114;DHT22;3087;48.392;10.836;2022-07-23T01:45:57;21.60;99.90
6114;DHT22;3087;48.392;10.836;2022-07-23T01:48:23;21.50;99.90
6114;DHT22;3087;48.392;10.836;2022-07-23T01:50:48;21.40;99.90
6114;DHT22;3087;48.392;10.836;2022-07-23T01:53:15;21.40;99.90
6114;DHT22;3087;48.392;10.836;2022-07-23T01:55:41;21.50;99.90
6114;DHT22;3087;48.392;10.836;2022-07-23T01:58:07;21.60;99.90
6114;DHT22;3087;48.392;10.836;2022-07-23T02:00:33;21.60;99.90
6114;DHT22;3087;48.392;10.836;2022-07-23T02:02:59;21.60;99.90
6114;DHT22;3087;48.392;10.836;2022-07-23T02:05:25;21.80;99.90
6114;DHT22;3087;48.392;10.836;2022-07-23T02:07:51;21.90;99.90
6114;DHT22;3087;48.392;10.836;2022-07-23T02:10:17;21.90;99.90
6114;DHT22;3087;48.392;10.836;2022-07-23T02:12:43;22.00;99.90
6114;DHT22;3087;48.392;10.836;2022-07-23T02:15:09;22.10;99.90
6114;DHT22;3087;48.392;10.836;2022-07-23T02:17:35;22.20;99.90
6114;DHT22;3087;48.392;10.836;2022-07-23T02:20:01;22.20;99.90
6114;DHT22;3087;48.392;10.836;2022-07-23T02:22:26;22.20;99.90
6114;DHT22;3087;48.392;10.836;2022-07-23T02:24:52;22.20;99.90
6114;DHT22;3087;48.392;10.836;2022-07-23T02:27:18;22.10;99.90
6114;DHT22;3087;48.392;10.836;2022-07-23T02:29:43;22.00;99.90
6114;DHT22;3087;48.392;10.836;2022-07-23T02:32:09;21.90;99.90
6114;DHT22;3087;48.392;10.836;2022-07-23T02:34:35;21.80;99.90
6114;DHT22;3087;48.392;10.836;2022-07-23T02:37:00;21.70;99.90
6114;DHT22;3087;48.392;10.836;2022-07-23T02:39:26;21.60;99.90
6114;DHT22;3087;48.392;10.836;2022-07-23T02:41:52;21.50;99.90
6114;DHT22;3087;48.392;10.836;2022-07-23T02:44:18;21.60;99.90
6114;DHT22;3087;48.392;10.836;2022-07-23T02:46:43;21.60;99.90
6114;DHT22;3087;48.392;10.836;2022-07-23T02:49:09;21.60;99.90
6114;DHT22;3087;48.392;10.836;2022-07-23T02:51:35;21.50;99.90
6114;DHT22;3087;48.392;10.836;2022-07-23T02:54:00;21.30;99.90
6114;DHT22;3087;48.392;10.836;2022-07-23T02:56:26;21.20;99.90
6114;DHT22;3087;48.392;10.836;2022-07-23T02:58:51;21.20;99.90
6114;DHT22;3087;48.392;10.836;2022-07-23T03:01:17;21.10;99.90
6114;DHT22;3087;48.392;10.836;2022-07-23T03:03:43;21.20;99.90
6114;DHT22;3087;48.392;10.836;2022-07-23T03:06:08;21.20;99.90
6114;DHT22;3087;48.392;10.836;2022-07-23T03:08:34;21.30;99.90
6114;DHT22;3087;48.392;10.836;2022-07-23T03:10:59;21.40;99.90
6114;DHT22;3087;48.392;10.836;2022-07-23T03:13:25;21.50;99.90
6114;DHT22;3087;48.392;10.836;2022-07-23T03:15:51;21.50;99.90
6114;DHT22;3087;48.392;10.836;2022-07-23T03:18:17;21.70;99.90
6114;DHT22;3087;48.392;10.836;2022-07-23T03:20:42;21.70;99.90
6114;DHT22;3087;48.392;10.836;2022-07-23T03:23:08;21.50;99.90
6114;DHT22;3087;48.392;10.836;2022-07-23T03:25:33;21.30;99.90
6114;DHT22;3087;48.392;10.836;2022-07-23T03:27:59;21.30;99.90
6114;DHT22;3087;48.392;10.836;2022-07-23T03:30:25;21.20;99.90
6114;DHT22;3087;48.392;10.836;2022-07-23T03:32:50;21.10;99.90
6114;DHT22;3087;48.392;10.836;2022-07-23T03:35:16;21.10;99.90
6114;DHT22;3087;48.392;10.836;2022-07-23T03:37:41;22.40;99.90
6114;DHT22;3087;48.392;10.836;2022-07-23T03:40:07;21.40;99.90
6114;DHT22;3087;48.392;10.836;2022-07-23T03:42:33;21.50;99.90
6114;DHT22;3087;48.392;10.836;2022-07-23T03:44:59;21.50;99.90
6114;DHT22;3087;48.392;10.836;2022-07-23T03:47:26;21.50;99.90
6114;DHT22;3087;48.392;10.836;2022-07-23T03:49:51;21.40;99.90
6114;DHT22;3087;48.392;10.836;2022-07-23T03:52:17;21.50;99.90
6114;DHT22;3087;48.392;10.836;2022-07-23T03:54:42;21.50;99.90
6114;DHT22;3087;48.392;10.836;2022-07-23T03:57:08;21.60;99.90
6114;DHT22;3087;48.392;10.836;2022-07-23T03:59:34;21.80;99.90
6114;DHT22;3087;48.392;10.836;2022-07-23T04:01:59;21.70;99.90
6114;DHT22;3087;48.392;10.836;2022-07-23T04:04:25;21.60;99.90
6114;DHT22;3087;48.392;10.836;2022-07-23T04:06:50;21.50;99.90
6114;DHT22;3087;48.392;10.836;2022-07-23T04:09:16;21.50;99.90
6114;DHT22;3087;48.392;10.836;2022-07-23T04:11:41;21.50;99.90
6114;DHT22;3087;48.392;10.836;2022-07-23T04:14:08;21.50;99.90
6114;DHT22;3087;48.392;10.836;2022-07-23T04:16:33;21.40;99.90
6114;DHT22;3087;48.392;10.836;2022-07-23T04:18:59;21.30;99.90
6114;DHT22;3087;48.392;10.836;2022-07-23T04:21:25;21.30;99.90
6114;DHT22;3087;48.392;10.836;2022-07-23T04:23:51;21.30;99.90
6114;DHT22;3087;48.392;10.836;2022-07-23T04:26:16;21.30;99.90
6114;DHT22;3087;48.392;10.836;2022-07-23T04:28:42;21.30;99.90
6114;DHT22;3087;48.392;10.836;2022-07-23T04:31:08;21.30;99.90
6114;DHT22;3087;48.392;10.836;2022-07-23T04:33:34;21.30;99.90
6114;DHT22;3087;48.392;10.836;2022-07-23T04:35:59;21.50;99.90
6114;DHT22;3087;48.392;10.836;2022-07-23T04:38:25;21.80;99.90
6114;DHT22;3087;48.392;10.836;2022-07-23T04:40:50;22.40;99.90
6114;DHT22;3087;48.392;10.836;2022-07-23T04:43:16;22.90;99.90
6114;DHT22;3087;48.392;10.836;2022-07-23T04:45:42;23.10;99.90
6114;DHT22;3087;48.392;10.836;2022-07-23T04:48:07;22.90;99.90
6114;DHT22;3087;48.392;10.836;2022-07-23T04:50:33;22.80;99.90
6114;DHT22;3087;48.392;10.836;2022-07-23T04:52:58;22.60;99.90
6114;DHT22;3087;48.392;10.836;2022-07-23T04:55:24;22.60;99.90
6114;DHT22;3087;48.392;10.836;2022-07-23T04:57:50;22.90;99.90
6114;DHT22;3087;48.392;10.836;2022-07-23T05:00:16;22.90;99.90
6114;DHT22;3087;48.392;10.836;2022-07-23T05:02:41;22.70;99.90
6114;DHT22;3087;48.392;10.836;2022-07-23T05:05:07;22.50;99.90
6114;DHT22;3087;48.392;10.836;2022-07-23T05:07:33;22.50;99.90
6114;DHT22;3087;48.392;10.836;2022-07-23T05:09:58;22.30;99.90
6114;DHT22;3087;48.392;10.836;2022-07-23T05:12:24;22.40;99.90
6114;DHT22;3087;48.392;10.836;2022-07-23T05:14:50;20.20;99.90
6114;DHT22;3087;48.392;10.836;2022-07-23T05:17:15;22.20;99.90
6114;DHT22;3087;48.392;10.836;2022-07-23T05:19:41;22.20;99.90
6114;DHT22;3087;48.392;10.836;2022-07-23T05:22:06;22.20;99.90
6114;DHT22;3087;48.392;10.836;2022-07-23T05:24:32;22.70;99.90
6114;DHT22;3087;48.392;10.836;2022-07-23T05:26:58;22.90;99.90
6114;DHT22;3087;48.392;10.836;2022-07-23T05:29:23;23.10;99.90
6114;DHT22;3087;48.392;10.836;2022-07-23T05:31:49;23.30;99.90
6114;DHT22;3087;48.392;10.836;2022-07-23T05:34:15;23.60;99.90
6114;DHT22;3087;48.392;10.836;2022-07-23T05:36:40;23.80;99.90
6114;DHT22;3087;48.392;10.836;2022-07-23T05:39:06;23.80;99.90
6114;DHT22;3087;48.392;10.836;2022-07-23T05:41:32;23.50;99.90
6114;DHT22;3087;48.392;10.836;2022-07-23T05:43:58;23.20;99.90
6114;DHT22;3087;48.392;10.836;2022-07-23T05:46:23;22.90;99.90
6114;DHT22;3087;48.392;10.836;2022-07-23T05:48:49;22.70;99.90
6114;DHT22;3087;48.392;10.836;2022-07-23T05:51:22;22.70;99.90
6114;DHT22;3087;48.392;10.836;2022-07-23T05:53:48;23.10;99.90
6114;DHT22;3087;48.392;10.836;2022-07-23T05:56:14;23.50;99.90
6114;DHT22;3087;48.392;10.836;2022-07-23T05:58:39;23.80;99.90
6114;DHT22;3087;48.392;10.836;2022-07-23T06:01:05;24.10;99.90
6114;DHT22;3087;48.392;10.836;2022-07-23T06:03:31;24.40;99.90
6114;DHT22;3087;48.392;10.836;2022-07-23T06:05:56;24.60;99.90
6114;DHT22;3087;48.392;10.836;2022-07-23T06:08:22;24.70;99.90
6114;DHT22;3087;48.392;10.836;2022-07-23T06:10:47;24.80;99.90
6114;DHT22;3087;48.392;10.836;2022-07-23T06:13:14;24.90;99.90
6114;DHT22;3087;48.392;10.836;2022-07-23T06:15:40;24.50;99.90
6114;DHT22;3087;48.392;10.836;2022-07-23T06:18:05;24.00;99.90
6114;DHT22;3087;48.392;10.836;2022-07-23T06:20:31;23.90;99.90
6114;DHT22;3087;48.392;10.836;2022-07-23T06:22:56;24.10;99.90
6114;DHT22;3087;48.392;10.836;2022-07-23T06:25:22;24.30;99.90
6114;DHT22;3087;48.392;10.836;2022-07-23T06:27:48;24.40;99.90
6114;DHT22;3087;48.392;10.836;2022-07-23T06:30:15;24.50;99.90
6114;DHT22;3087;48.392;10.836;2022-07-23T06:32:44;24.60;99.90
6114;DHT22;3087;48.392;10.836;2022-07-23T06:35:10;24.70;99.90
6114;DHT22;3087;48.392;10.836;2022-07-23T06:37:36;24.80;99.90
6114;DHT22;3087;48.392;10.836;2022-07-23T06:40:02;24.90;99.90
6114;DHT22;3087;48.392;10.836;2022-07-23T06:42:28;24.80;99.90
6114;DHT22;3087;48.392;10.836;2022-07-23T06:44:54;24.70;99.90
6114;DHT22;3087;48.392;10.836;2022-07-23T06:47:19;24.40;99.90
6114;DHT22;3087;48.392;10.836;2022-07-23T06:49:45;24.20;99.90
6114;DHT22;3087;48.392;10.836;2022-07-23T06:52:11;24.10;99.90
6114;DHT22;3087;48.392;10.836;2022-07-23T06:54:36;23.90;99.90
6114;DHT22;3087;48.392;10.836;2022-07-23T06:57:02;23.80;99.90
6114;DHT22;3087;48.392;10.836;2022-07-23T06:59:28;23.70;99.90
6114;DHT22;3087;48.392;10.836;2022-07-23T07:01:53;23.50;99.90
6114;DHT22;3087;48.392;10.836;2022-07-23T07:04:19;23.80;99.90
6114;DHT22;3087;48.392;10.836;2022-07-23T07:06:45;24.10;99.90
6114;DHT22;3087;48.392;10.836;2022-07-23T07:09:10;24.00;99.90
6114;DHT22;3087;48.392;10.836;2022-07-23T07:11:36;23.70;99.90
6114;DHT22;3087;48.392;10.836;2022-07-23T07:14:01;23.40;99.90
6114;DHT22;3087;48.392;10.836;2022-07-23T07:16:27;23.10;99.90
6114;DHT22;3087;48.392;10.836;2022-07-23T07:18:53;22.90;99.90
6114;DHT22;3087;48.392;10.836;2022-07-23T07:21:18;23.10;99.90
6114;DHT22;3087;48.392;10.836;2022-07-23T07:23:44;23.50;99.90
6114;DHT22;3087;48.392;10.836;2022-07-23T07:26:09;23.90;99.90
6114;DHT22;3087;48.392;10.836;2022-07-23T07:28:35;24.10;99.90
6114;DHT22;3087;48.392;10.836;2022-07-23T07:31:01;24.40;99.90
6114;DHT22;3087;48.392;10.836;2022-07-23T07:33:26;24.60;99.90
6114;DHT22;3087;48.392;10.836;2022-07-23T07:35:52;24.70;99.90
6114;DHT22;3087;48.392;10.836;2022-07-23T07:38:18;24.70;99.90
6114;DHT22;3087;48.392;10.836;2022-07-23T07:40:44;24.80;99.90
6114;DHT22;3087;48.392;10.836;2022-07-23T07:43:09;24.90;99.90
6114;DHT22;3087;48.392;10.836;2022-07-23T07:45:35;25.10;99.90
6114;DHT22;3087;48.392;10.836;2022-07-23T07:48:01;25.00;99.90
6114;DHT22;3087;48.392;10.836;2022-07-23T07:50:26;24.90;99.90
6114;DHT22;3087;48.392;10.836;2022-07-23T07:52:53;24.70;99.90
6114;DHT22;3087;48.392;10.836;2022-07-23T07:55:18;24.50;99.90
6114;DHT22;3087;48.392;10.836;2022-07-23T07:57:44;24.60;99.90
6114;DHT22;3087;48.392;10.836;2022-07-23T08:00:10;24.70;99.90
6114;DHT22;3087;48.392;10.836;2022-07-23T08:05:06;24.60;99.90
6114;DHT22;3087;48.392;10.836;2022-07-23T08:07:32;24.80;99.90
6114;DHT22;3087;48.392;10.836;2022-07-23T08:09:57;25.10;99.90
6114;DHT22;3087;48.392;10.836;2022-07-23T08:12:23;25.20;99.90
6114;DHT22;3087;48.392;10.836;2022-07-23T08:14:49;25.30;99.90
6114;DHT22;3087;48.392;10.836;2022-07-23T08:17:14;25.40;99.90
6114;DHT22;3087;48.392;10.836;2022-07-23T08:19:40;25.40;99.90
6114;DHT22;3087;48.392;10.836;2022-07-23T08:22:05;25.50;99.90
6114;DHT22;3087;48.392;10.836;2022-07-23T08:24:31;25.60;99.90
6114;DHT22;3087;48.392;10.836;2022-07-23T08:26:57;25.70;99.90
6114;DHT22;3087;48.392;10.836;2022-07-23T08:29:22;25.70;99.90
6114;DHT22;3087;48.392;10.836;2022-07-23T08:31:48;25.80;99.90
6114;DHT22;3087;48.392;10.836;2022-07-23T08:34:13;25.80;99.90
6114;DHT22;3087;48.392;10.836;2022-07-23T08:36:39;25.80;99.90
6114;DHT22;3087;48.392;10.836;2022-07-23T08:39:04;25.90;99.90
6114;DHT22;3087;48.392;10.836;2022-07-23T08:41:30;26.00;99.90
6114;DHT22;3087;48.392;10.836;2022-07-23T08:43:55;26.00;99.90
6114;DHT22;3087;48.392;10.836;2022-07-23T08:46:22;26.00;99.90
6114;DHT22;3087;48.392;10.836;2022-07-23T08:48:49;26.10;99.90
6114;DHT22;3087;48.392;10.836;2022-07-23T08:51:15;26.10;99.90
6114;DHT22;3087;48.392;10.836;2022-07-23T08:53:42;26.20;99.90
6114;DHT22;3087;48.392;10.836;2022-07-23T08:56:09;26.20;99.90
6114;DHT22;3087;48.392;10.836;2022-07-23T08:58:35;28.50;99.90
6114;DHT22;3087;48.392;10.836;2022-07-23T09:01:01;26.30;99.90
6114;DHT22;3087;48.392;10.836;2022-07-23T09:03:32;26.30;99.90
6114;DHT22;3087;48.392;10.836;2022-07-23T09:05:59;26.30;99.90
6114;DHT22;3087;48.392;10.836;2022-07-23T09:08:40;26.30;99.90
6114;DHT22;3087;48.392;10.836;2022-07-23T09:11:08;26.40;99.90
6114;DHT22;3087;48.392;10.836;2022-07-23T09:16:32;26.50;99.90
6114;DHT22;3087;48.392;10.836;2022-07-23T09:19:01;26.50;99.90
6114;DHT22;3087;48.392;10.836;2022-07-23T09:21:30;26.60;99.90
6114;DHT22;3087;48.392;10.836;2022-07-23T09:26:38;26.60;99.90
6114;DHT22;3087;48.392;10.836;2022-07-23T09:29:40;26.50;99.90
6114;DHT22;3087;48.392;10.836;2022-07-23T09:32:05;26.60;99.90
6114;DHT22;3087;48.392;10.836;2022-07-23T09:34:34;26.50;99.90
6114;DHT22;3087;48.392;10.836;2022-07-23T09:37:12;26.60;99.90
6114;DHT22;3087;48.392;10.836;2022-07-23T09:39:39;26.50;99.90
6114;DHT22;3087;48.392;10.836;2022-07-23T09:44:48;26.70;99.90
6114;DHT22;3087;48.392;10.836;2022-07-23T09:47:15;26.80;99.90
6114;DHT22;3087;48.392;10.836;2022-07-23T09:52:34;26.90;99.90
6114;DHT22;3087;48.392;10.836;2022-07-23T09:55:03;27.00;99.90
6114;DHT22;3087;48.392;10.836;2022-07-23T09:57:31;27.00;99.90
6114;DHT22;3087;48.392;10.836;2022-07-23T10:00:03;27.00;99.90
6114;DHT22;3087;48.392;10.836;2022-07-23T10:02:32;27.10;99.90
6114;DHT22;3087;48.392;10.836;2022-07-23T10:04:59;27.20;99.90
6114;DHT22;3087;48.392;10.836;2022-07-23T10:07:27;27.30;99.90
6114;DHT22;3087;48.392;10.836;2022-07-23T10:09:55;27.30;99.90
6114;DHT22;3087;48.392;10.836;2022-07-23T10:12:22;27.30;99.90
6114;DHT22;3087;48.392;10.836;2022-07-23T10:14:56;27.30;99.90
6114;DHT22;3087;48.392;10.836;2022-07-23T10:17:21;27.30;99.90
6114;DHT22;3087;48.392;10.836;2022-07-23T10:19:47;27.40;99.90
6114;DHT22;3087;48.392;10.836;2022-07-23T10:22:19;27.60;99.90
6114;DHT22;3087;48.392;10.836;2022-07-23T10:24:59;27.70;99.90
6114;DHT22;3087;48.392;10.836;2022-07-23T10:36:01;28.00;99.90
6114;DHT22;3087;48.392;10.836;2022-07-23T10:38:56;28.10;99.90
6114;DHT22;3087;48.392;10.836;2022-07-23T10:41:39;28.10;99.90
6114;DHT22;3087;48.392;10.836;2022-07-23T10:46:54;28.20;99.90
6114;DHT22;3087;48.392;10.836;2022-07-23T10:49:35;28.30;99.90
6114;DHT22;3087;48.392;10.836;2022-07-23T10:57:28;28.50;99.90
6114;DHT22;3087;48.392;10.836;2022-07-23T11:02:40;28.60;99.90
6114;DHT22;3087;48.392;10.836;2022-07-23T11:07:32;28.90;99.90
6114;DHT22;3087;48.392;10.836;2022-07-23T11:09:59;29.20;99.90
6114;DHT22;3087;48.392;10.836;2022-07-23T11:20:21;29.70;99.90
6114;DHT22;3087;48.392;10.836;2022-07-23T11:22:54;29.60;99.90
6114;DHT22;3087;48.392;10.836;2022-07-23T11:27:53;30.10;99.90
6114;DHT22;3087;48.392;10.836;2022-07-23T11:35:44;30.00;99.90
6114;DHT22;3087;48.392;10.836;2022-07-23T11:38:18;29.70;99.90
6114;DHT22;3087;48.392;10.836;2022-07-23T11:40:52;29.50;99.90
6114;DHT22;3087;48.392;10.836;2022-07-23T11:43:20;29.50;99.90
6114;DHT22;3087;48.392;10.836;2022-07-23T11:45:52;29.80;99.90
6114;DHT22;3087;48.392;10.836;2022-07-23T11:50:50;30.20;99.90
6114;DHT22;3087;48.392;10.836;2022-07-23T11:53:31;30.20;99.90
6114;DHT22;3087;48.392;10.836;2022-07-23T11:56:06;30.30;99.90
6114;DHT22;3087;48.392;10.836;2022-07-23T11:58:33;30.10;99.90
6114;DHT22;3087;48.392;10.836;2022-07-23T12:00:58;29.90;99.90
6114;DHT22;3087;48.392;10.836;2022-07-23T12:03:24;30.40;99.90
6114;DHT22;3087;48.392;10.836;2022-07-23T12:05:56;30.30;99.90
6114;DHT22;3087;48.392;10.836;2022-07-23T12:08:22;30.50;99.90
6114;DHT22;3087;48.392;10.836;2022-07-23T12:10:48;30.60;99.90
6114;DHT22;3087;48.392;10.836;2022-07-23T12:13:17;30.60;99.90
6114;DHT22;3087;48.392;10.836;2022-07-23T12:15:49;30.50;99.90
6114;DHT22;3087;48.392;10.836;2022-07-23T12:18:19;30.30;99.90
6114;DHT22;3087;48.392;10.836;2022-07-23T12:20:48;30.10;99.90
6114;DHT22;3087;48.392;10.836;2022-07-23T12:23:16;29.90;99.90
6114;DHT22;3087;48.392;10.836;2022-07-23T12:25:44;29.70;99.90
6114;DHT22;3087;48.392;10.836;2022-07-23T12:28:22;29.60;99.90
6114;DHT22;3087;48.392;10.836;2022-07-23T12:30:53;29.50;99.90
6114;DHT22;3087;48.392;10.836;2022-07-23T12:33:33;29.60;99.90
6114;DHT22;3087;48.392;10.836;2022-07-23T12:36:02;29.60;99.90
6114;DHT22;3087;48.392;10.836;2022-07-23T12:38:38;29.60;99.90
6114;DHT22;3087;48.392;10.836;2022-07-23T12:41:04;29.60;99.90
6114;DHT22;3087;48.392;10.836;2022-07-23T12:43:36;29.50;99.90
6114;DHT22;3087;48.392;10.836;2022-07-23T12:51:15;29.50;99.90
6114;DHT22;3087;48.392;10.836;2022-07-23T12:53:45;29.40;99.90
6114;DHT22;3087;48.392;10.836;2022-07-23T12:58:55;29.40;99.90
6114;DHT22;3087;48.392;10.836;2022-07-23T13:04:08;29.30;99.90
6114;DHT22;3087;48.392;10.836;2022-07-23T13:06:41;29.20;99.90
6114;DHT22;3087;48.392;10.836;2022-07-23T13:09:11;29.10;99.90
6114;DHT22;3087;48.392;10.836;2022-07-23T13:11:38;29.10;99.90
6114;DHT22;3087;48.392;10.836;2022-07-23T13:14:05;28.90;99.90
6114;DHT22;3087;48.392;10.836;2022-07-23T13:16:32;28.90;99.90
6114;DHT22;3087;48.392;10.836;2022-07-23T13:19:00;28.90;99.90
6114;DHT22;3087;48.392;10.836;2022-07-23T13:21:26;28.80;99.90
6114;DHT22;3087;48.392;10.836;2022-07-23T13:23:52;28.60;99.90
6114;DHT22;3087;48.392;10.836;2022-07-23T13:26:18;28.50;99.90
6114;DHT22;3087;48.392;10.836;2022-07-23T13:28:44;28.50;99.90
6114;DHT22;3087;48.392;10.836;2022-07-23T13:31:10;28.50;99.90
6114;DHT22;3087;48.392;10.836;2022-07-23T13:33:36;28.50;99.90
6114;DHT22;3087;48.392;10.836;2022-07-23T13:36:02;28.60;99.90
6114;DHT22;3087;48.392;10.836;2022-07-23T13:38:29;28.70;99.90
6114;DHT22;3087;48.392;10.836;2022-07-23T13:40:54;28.70;99.90
6114;DHT22;3087;48.392;10.836;2022-07-23T13:43:23;28.80;99.90
6114;DHT22;3087;48.392;10.836;2022-07-23T13:45:50;28.90;99.90
6114;DHT22;3087;48.392;10.836;2022-07-23T13:48:17;28.90;99.90
6114;DHT22;3087;48.392;10.836;2022-07-23T13:50:45;28.90;99.90
6114;DHT22;3087;48.392;10.836;2022-07-23T13:53:19;28.90;99.90
6114;DHT22;3087;48.392;10.836;2022-07-23T13:55:47;28.90;99.90
6114;DHT22;3087;48.392;10.836;2022-07-23T13:58:13;28.90;99.90
6114;DHT22;3087;48.392;10.836;2022-07-23T14:00:41;28.90;99.90
6114;DHT22;3087;48.392;10.836;2022-07-23T14:03:08;29.00;99.90
6114;DHT22;3087;48.392;10.836;2022-07-23T14:05:34;28.90;99.90
6114;DHT22;3087;48.392;10.836;2022-07-23T14:08:00;28.90;99.90
6114;DHT22;3087;48.392;10.836;2022-07-23T14:10:25;29.20;99.90
6114;DHT22;3087;48.392;10.836;2022-07-23T14:12:52;29.40;99.90
6114;DHT22;3087;48.392;10.836;2022-07-23T14:15:26;29.50;99.90
6114;DHT22;3087;48.392;10.836;2022-07-23T14:17:53;29.80;99.90
6114;DHT22;3087;48.392;10.836;2022-07-23T14:20:18;30.00;99.90
6114;DHT22;3087;48.392;10.836;2022-07-23T14:22:44;30.10;99.90
6114;DHT22;3087;48.392;10.836;2022-07-23T14:25:11;30.10;99.90
6114;DHT22;3087;48.392;10.836;2022-07-23T14:27:37;30.30;99.90
6114;DHT22;3087;48.392;10.836;2022-07-23T14:30:05;30.40;99.90
6114;DHT22;3087;48.392;10.836;2022-07-23T14:32:34;30.60;99.90
6114;DHT22;3087;48.392;10.836;2022-07-23T14:35:00;30.40;99.90
6114;DHT22;3087;48.392;10.836;2022-07-23T14:37:25;30.80;99.90
6114;DHT22;3087;48.392;10.836;2022-07-23T14:39:51;30.90;99.90
6114;DHT22;3087;48.392;10.836;2022-07-23T14:42:18;27.70;99.90
6114;DHT22;3087;48.392;10.836;2022-07-23T14:44:43;31.10;99.90
6114;DHT22;3087;48.392;10.836;2022-07-23T14:47:09;31.20;99.90
6114;DHT22;3087;48.392;10.836;2022-07-23T14:49:35;31.20;99.90
6114;DHT22;3087;48.392;10.836;2022-07-23T14:52:02;31.10;99.90
6114;DHT22;3087;48.392;10.836;2022-07-23T14:54:28;30.80;99.90
6114;DHT22;3087;48.392;10.836;2022-07-23T14:56:55;30.60;99.90
6114;DHT22;3087;48.392;10.836;2022-07-23T14:59:22;30.50;99.90
6114;DHT22;3087;48.392;10.836;2022-07-23T15:01:48;30.40;99.90
6114;DHT22;3087;48.392;10.836;2022-07-23T15:04:14;30.20;99.90
6114;DHT22;3087;48.392;10.836;2022-07-23T15:06:40;30.00;99.90
6114;DHT22;3087;48.392;10.836;2022-07-23T15:09:06;29.80;99.90
6114;DHT22;3087;48.392;10.836;2022-07-23T15:11:32;29.70;99.90
6114;DHT22;3087;48.392;10.836;2022-07-23T15:14:00;29.50;99.90
6114;DHT22;3087;48.392;10.836;2022-07-23T15:16:27;29.50;99.90
6114;DHT22;3087;48.392;10.836;2022-07-23T15:18:52;29.40;99.90
6114;DHT22;3087;48.392;10.836;2022-07-23T15:21:18;29.50;99.90
6114;DHT22;3087;48.392;10.836;2022-07-23T15:23:44;29.40;99.90
6114;DHT22;3087;48.392;10.836;2022-07-23T15:26:10;29.30;99.90
6114;DHT22;3087;48.392;10.836;2022-07-23T15:28:36;29.20;99.90
6114;DHT22;3087;48.392;10.836;2022-07-23T15:31:02;29.10;99.90
6114;DHT22;3087;48.392;10.836;2022-07-23T15:33:28;28.90;99.90
6114;DHT22;3087;48.392;10.836;2022-07-23T15:35:53;28.90;99.90
6114;DHT22;3087;48.392;10.836;2022-07-23T15:38:21;28.80;99.90
6114;DHT22;3087;48.392;10.836;2022-07-23T15:40:47;28.80;99.90
6114;DHT22;3087;48.392;10.836;2022-07-23T15:43:13;28.80;99.90
6114;DHT22;3087;48.392;10.836;2022-07-23T15:45:39;28.70;99.90
6114;DHT22;3087;48.392;10.836;2022-07-23T15:48:05;28.70;99.90
6114;DHT22;3087;48.392;10.836;2022-07-23T15:50:32;28.90;99.90
6114;DHT22;3087;48.392;10.836;2022-07-23T15:52:58;29.00;99.90
6114;DHT22;3087;48.392;10.836;2022-07-23T15:55:24;29.10;99.90
6114;DHT22;3087;48.392;10.836;2022-07-23T15:57:50;29.30;99.90
6114;DHT22;3087;48.392;10.836;2022-07-23T16:00:17;29.50;99.90
6114;DHT22;3087;48.392;10.836;2022-07-23T16:02:43;29.90;99.90
6114;DHT22;3087;48.392;10.836;2022-07-23T16:05:08;30.10;99.90
6114;DHT22;3087;48.392;10.836;2022-07-23T16:07:34;30.30;99.90
6114;DHT22;3087;48.392;10.836;2022-07-23T16:10:06;30.30;99.90
6114;DHT22;3087;48.392;10.836;2022-07-23T16:12:32;30.40;99.90
6114;DHT22;3087;48.392;10.836;2022-07-23T16:14:58;30.60;99.90
6114;DHT22;3087;48.392;10.836;2022-07-23T16:17:24;30.60;99.90
6114;DHT22;3087;48.392;10.836;2022-07-23T16:19:49;30.50;99.90
6114;DHT22;3087;48.392;10.836;2022-07-23T16:22:15;30.40;99.90
6114;DHT22;3087;48.392;10.836;2022-07-23T16:24:42;30.40;99.90
6114;DHT22;3087;48.392;10.836;2022-07-23T16:27:08;30.30;99.90
6114;DHT22;3087;48.392;10.836;2022-07-23T16:29:34;30.40;99.90
6114;DHT22;3087;48.392;10.836;2022-07-23T16:31:59;30.30;99.90
6114;DHT22;3087;48.392;10.836;2022-07-23T16:34:25;30.30;99.90
6114;DHT22;3087;48.392;10.836;2022-07-23T16:36:51;30.30;99.90
6114;DHT22;3087;48.392;10.836;2022-07-23T16:39:17;30.20;99.90
6114;DHT22;3087;48.392;10.836;2022-07-23T16:41:43;30.10;99.90
6114;DHT22;3087;48.392;10.836;2022-07-23T16:44:09;30.00;99.90
6114;DHT22;3087;48.392;10.836;2022-07-23T16:46:34;30.00;99.90